createdAt,value
2023-02-18T00:00:29.256Z,101466.00
2023-02-18T00:02:58.607Z,101468.94
2023-02-18T00:05:28.563Z,101466.22
2023-02-18T00:07:55.311Z,101465.28
2023-02-18T00:10:21.999Z,101453.69
2023-02-18T00:12:48.707Z,101453.53
2023-02-18T00:15:15.504Z,101454.25
2023-02-18T00:17:42.226Z,101454.38
2023-02-18T00:20:09.358Z,101454.25
2023-02-18T00:22:36.053Z,101457.84
2023-02-18T00:25:02.755Z,101455.19
2023-02-18T00:27:29.488Z,101443.25
2023-02-18T00:29:56.316Z,101460.41
2023-02-18T00:32:23.094Z,101464.19
2023-02-18T00:34:49.866Z,101466.94
2023-02-18T00:37:16.662Z,101457.47
2023-02-18T00:39:44.281Z,101465.69
2023-02-18T00:42:11.077Z,101463.00
2023-02-18T00:44:37.804Z,101465.78
2023-02-18T00:47:04.546Z,101468.78
2023-02-18T00:49:31.629Z,101452.59
2023-02-18T00:51:58.474Z,101467.84
2023-02-18T00:54:25.200Z,101465.84
2023-02-18T00:56:51.886Z,101460.59
2023-02-18T00:59:18.566Z,101461.69
2023-02-18T01:01:45.373Z,101458.56
2023-02-18T01:04:12.457Z,101452.28
2023-02-18T01:06:39.559Z,101459.44
2023-02-18T01:09:06.507Z,101445.84
2023-02-18T01:11:33.321Z,101445.16
2023-02-18T01:14:00.058Z,101442.34
2023-02-18T01:16:27.146Z,101441.78
2023-02-18T01:18:53.983Z,101437.19
2023-02-18T01:21:21.138Z,101449.78
2023-02-18T01:23:47.865Z,101440.84
2023-02-18T01:26:15.625Z,101445.16
2023-02-18T01:28:42.348Z,101440.97
2023-02-18T01:31:12.541Z,101440.97
2023-02-18T01:33:39.584Z,101437.19
2023-02-18T01:36:07.445Z,101443.41
2023-02-18T01:38:34.414Z,101447.25
2023-02-18T01:41:01.192Z,101448.78
2023-02-18T01:43:28.004Z,101441.78
2023-02-18T01:45:58.006Z,101448.28
2023-02-18T01:48:39.668Z,101448.34
2023-02-18T01:51:15.018Z,101451.78
2023-02-18T01:53:52.967Z,101449.00
2023-02-18T01:56:27.929Z,101446.16
2023-02-18T01:58:56.996Z,101448.94
2023-02-18T02:01:25.608Z,101450.53
2023-02-18T02:03:52.528Z,101452.44
2023-02-18T02:06:22.826Z,101454.63
2023-02-18T02:08:51.869Z,101438.00
2023-02-18T02:11:31.252Z,101444.84
2023-02-18T02:14:22.182Z,101451.34
2023-02-18T02:17:10.524Z,101439.94
2023-02-18T02:20:11.886Z,101435.59
2023-02-18T02:23:15.688Z,101436.09
2023-02-18T02:26:19.560Z,101439.81
2023-02-18T02:29:24.547Z,101429.09
2023-02-18T02:32:29.878Z,101443.44
2023-02-18T02:35:07.703Z,101438.03
2023-02-18T02:37:34.324Z,101436.75
2023-02-18T02:40:15.659Z,101443.41
2023-02-18T02:43:05.552Z,101435.59
2023-02-18T02:45:44.477Z,101439.09
2023-02-18T02:48:49.140Z,101432.88
2023-02-18T02:51:18.478Z,101421.28
2023-02-18T02:53:45.249Z,101435.63
2023-02-18T02:56:18.730Z,101436.72
2023-02-18T02:58:47.964Z,101437.81
2023-02-18T03:01:35.534Z,101439.72
2023-02-18T03:04:13.994Z,101433.75
2023-02-18T03:07:03.506Z,101438.41
2023-02-18T03:09:48.468Z,101424.25
2023-02-18T03:12:23.234Z,101427.00
2023-02-18T03:15:11.152Z,101422.84
2023-02-18T03:17:46.251Z,101421.88
2023-02-18T03:20:26.597Z,101424.38
2023-02-18T03:22:56.076Z,101424.53
2023-02-18T03:25:24.361Z,101418.47
2023-02-18T03:27:56.127Z,101402.00
2023-02-18T03:30:27.368Z,101403.53
2023-02-18T03:33:00.374Z,101398.41
2023-02-18T03:35:27.947Z,101390.97
2023-02-18T03:38:12.426Z,101387.22
2023-02-18T03:40:39.269Z,101399.88
2023-02-18T03:43:05.987Z,101392.47
2023-02-18T03:45:32.652Z,101380.72
2023-02-18T03:47:59.322Z,101371.53
2023-02-18T03:50:26.061Z,101362.84
2023-02-18T03:52:52.806Z,101347.09
2023-02-18T03:55:19.534Z,101337.31
2023-02-18T03:57:46.219Z,101343.75
2023-02-18T04:00:13.513Z,101328.50
2023-02-18T04:02:41.254Z,101328.50
2023-02-18T04:05:08.920Z,101323.09
2023-02-18T04:07:35.828Z,101307.56
2023-02-18T04:10:02.592Z,101304.88
2023-02-18T04:12:29.385Z,101302.81
2023-02-18T04:14:56.099Z,101291.63
2023-02-18T04:17:22.908Z,101292.56
2023-02-18T04:19:49.597Z,101285.91
2023-02-18T04:22:16.294Z,101283.97
2023-02-18T04:24:43.099Z,101282.38
2023-02-18T04:27:09.826Z,101278.72
2023-02-18T04:29:36.603Z,101278.94
2023-02-18T04:32:03.525Z,101267.28
2023-02-18T04:34:30.203Z,101267.03
2023-02-18T04:36:57.466Z,101270.59
2023-02-18T04:39:24.739Z,101281.16
2023-02-18T04:41:51.399Z,101276.56
2023-02-18T04:44:18.032Z,101279.19
2023-02-18T04:46:44.768Z,101264.97
2023-02-18T04:49:11.454Z,101269.66
2023-02-18T04:51:38.122Z,101261.25
2023-02-18T04:54:05.111Z,101262.91
2023-02-18T04:56:31.822Z,101263.69
2023-02-18T04:58:58.476Z,101265.16
2023-02-18T05:01:25.219Z,101252.84
2023-02-18T05:03:51.929Z,101260.13
2023-02-18T05:06:18.685Z,101256.72
2023-02-18T05:08:45.403Z,101253.38
2023-02-18T05:11:12.099Z,101246.47
2023-02-18T05:13:39.329Z,101256.31
2023-02-18T05:16:07.819Z,101249.16
2023-02-18T05:18:34.967Z,101245.59
2023-02-18T05:21:01.734Z,101252.09
2023-02-18T05:23:28.556Z,101247.09
2023-02-18T05:25:55.805Z,101241.06
2023-02-18T05:28:23.134Z,101241.09
2023-02-18T05:30:50.089Z,101241.34
2023-02-18T05:33:16.848Z,101228.06
2023-02-18T05:35:43.501Z,101240.91
2023-02-18T05:38:10.218Z,101232.88
2023-02-18T05:40:37.569Z,101227.34
2023-02-18T05:43:04.704Z,101231.50
2023-02-18T05:45:31.762Z,101231.88
2023-02-18T05:47:58.476Z,101226.31
2023-02-18T05:50:25.198Z,101224.78
2023-02-18T05:52:51.978Z,101215.69
2023-02-18T05:55:21.953Z,101221.13
2023-02-18T05:57:48.704Z,101219.19
2023-02-18T06:00:15.838Z,101212.50
2023-02-18T06:02:43.031Z,101202.34
2023-02-18T06:05:10.456Z,101206.06
2023-02-18T06:07:37.322Z,101192.66
2023-02-18T06:10:05.629Z,101190.66
2023-02-18T06:12:32.491Z,101187.97
2023-02-18T06:14:59.198Z,101181.88
2023-02-18T06:17:26.027Z,101174.63
2023-02-18T06:19:52.817Z,101180.81
2023-02-18T06:22:19.566Z,101178.28
2023-02-18T06:24:46.385Z,101174.00
2023-02-18T06:27:13.128Z,101173.19
2023-02-18T06:29:39.841Z,101172.56
2023-02-18T06:32:06.619Z,101170.66
2023-02-18T06:34:33.533Z,101170.50
2023-02-18T06:37:01.395Z,101168.44
2023-02-18T06:39:28.253Z,101165.84
2023-02-18T06:41:55.021Z,101178.75
2023-02-18T06:44:21.792Z,101168.09
2023-02-18T06:46:48.569Z,101156.53
2023-02-18T06:49:15.310Z,101153.31
2023-02-18T06:51:42.071Z,101160.91
2023-02-18T06:54:08.799Z,101152.88
2023-02-18T06:56:35.437Z,101147.31
2023-02-18T06:59:02.147Z,101139.53
2023-02-18T07:01:28.853Z,101132.50
2023-02-18T07:03:56.079Z,101122.66
2023-02-18T07:06:22.747Z,101118.28
2023-02-18T07:08:49.589Z,101108.28
2023-02-18T07:11:16.748Z,101103.44
2023-02-18T07:13:43.382Z,101092.50
2023-02-18T07:16:10.604Z,101084.16
2023-02-18T07:18:37.580Z,101076.53
2023-02-18T07:21:04.431Z,101069.56
2023-02-18T07:23:31.174Z,101066.88
2023-02-18T07:26:12.865Z,101061.53
2023-02-18T07:28:40.215Z,101061.13
2023-02-18T07:31:10.749Z,101052.91
2023-02-18T07:33:37.574Z,101051.63
2023-02-18T07:36:04.737Z,101039.97
2023-02-18T07:38:31.751Z,101031.50
2023-02-18T07:40:58.809Z,101022.28
2023-02-18T07:43:25.643Z,101007.94
2023-02-18T07:45:52.472Z,101001.09
2023-02-18T07:48:19.257Z,100988.41
2023-02-18T07:50:46.583Z,100985.34
2023-02-18T07:53:15.172Z,100978.22
2023-02-18T07:55:50.723Z,100968.75
2023-02-18T07:58:28.274Z,100951.41
2023-02-18T08:00:55.610Z,100933.97
2023-02-18T08:03:25.503Z,100921.34
2023-02-18T08:05:52.944Z,100917.63
2023-02-18T08:08:25.253Z,100907.53
2023-02-18T08:10:53.867Z,100900.00
2023-02-18T08:13:20.581Z,100894.72
2023-02-18T08:15:47.566Z,100880.34
2023-02-18T08:18:18.863Z,100870.03
2023-02-18T08:20:47.275Z,100853.56
2023-02-18T08:23:14.910Z,100848.31
2023-02-18T08:25:46.284Z,100844.84
2023-02-18T08:28:13.320Z,100842.31
2023-02-18T08:30:45.106Z,100827.72
2023-02-18T08:33:11.885Z,100825.25
2023-02-18T08:35:40.600Z,100810.19
2023-02-18T08:38:07.336Z,100794.75
2023-02-18T08:40:34.321Z,100784.97
2023-02-18T08:43:00.989Z,100792.28
2023-02-18T08:45:27.731Z,100775.59
2023-02-18T08:48:17.902Z,100760.81
2023-02-18T08:50:41.253Z,100748.75
2023-02-18T08:53:08.091Z,100746.41
2023-02-18T08:55:35.339Z,100745.19
2023-02-18T08:58:04.229Z,100741.63
2023-02-18T09:00:30.882Z,100737.38
2023-02-18T09:02:57.571Z,100716.94
2023-02-18T09:05:24.295Z,100714.31
2023-02-18T09:07:50.971Z,100704.72
2023-02-18T09:10:17.908Z,100710.13
2023-02-18T09:12:44.563Z,100702.50
2023-02-18T09:15:11.441Z,100705.00
2023-02-18T09:17:38.149Z,100707.88
2023-02-18T09:20:06.096Z,100704.59
2023-02-18T09:22:32.894Z,100704.03
2023-02-18T09:24:59.778Z,100705.88
2023-02-18T09:27:26.504Z,100694.13
2023-02-18T09:29:53.246Z,100686.81
2023-02-18T09:32:32.608Z,100696.03
2023-02-18T09:35:03.140Z,100684.09
2023-02-18T09:37:30.042Z,100671.16
2023-02-18T09:39:56.850Z,100667.47
2023-02-18T09:42:31.195Z,100668.25
2023-02-18T09:45:07.230Z,100677.19
2023-02-18T09:47:42.668Z,100681.53
2023-02-18T09:50:32.472Z,100668.84
2023-02-18T09:53:01.273Z,100660.94
2023-02-18T09:55:39.309Z,100642.97
2023-02-18T09:58:15.898Z,100629.22
2023-02-18T10:00:47.405Z,100622.09
2023-02-18T10:03:19.158Z,100605.94
2023-02-18T10:05:54.942Z,100593.59
2023-02-18T10:08:26.553Z,100602.47
2023-02-18T10:10:53.274Z,100592.47
2023-02-18T10:13:23.802Z,100589.00
2023-02-18T10:15:51.695Z,100598.47
2023-02-18T10:18:41.580Z,100585.00
2023-02-18T10:21:16.431Z,100566.50
2023-02-18T10:23:53.544Z,100550.13
2023-02-18T10:26:21.296Z,100566.75
2023-02-18T10:28:48.398Z,100575.44
2023-02-18T10:31:25.711Z,100569.19
2023-02-18T10:34:00.445Z,100557.22
2023-02-18T10:36:41.966Z,100555.00
2023-02-18T10:39:15.560Z,100566.75
2023-02-18T10:41:51.401Z,100561.91
2023-02-18T10:44:29.677Z,100559.44
2023-02-18T10:47:26.738Z,100553.69
2023-02-18T10:50:00.951Z,100553.81
2023-02-18T10:52:33.024Z,100560.81
2023-02-18T10:55:06.400Z,100542.59
2023-02-18T10:57:33.592Z,100541.78
2023-02-18T11:00:12.215Z,100537.22
2023-02-18T11:02:40.009Z,100518.84
2023-02-18T11:05:19.140Z,100507.50
2023-02-18T11:07:50.216Z,100504.59
2023-02-18T11:10:22.534Z,100497.97
2023-02-18T11:12:52.147Z,100495.63
2023-02-18T11:15:19.005Z,100506.50
2023-02-18T11:17:48.989Z,100500.53
2023-02-18T11:20:24.820Z,100505.81
2023-02-18T11:22:52.046Z,100511.78
2023-02-18T11:25:27.302Z,100513.50
2023-02-18T11:28:00.447Z,100511.88
2023-02-18T11:30:40.495Z,100517.03
2023-02-18T11:33:08.703Z,100505.59
2023-02-18T11:35:36.298Z,100514.78
2023-02-18T11:38:15.448Z,100517.66
2023-02-18T11:40:42.162Z,100499.97
2023-02-18T11:43:15.867Z,100502.22
2023-02-18T11:45:42.917Z,100506.22
2023-02-18T11:48:18.647Z,100503.47
2023-02-18T11:50:50.160Z,100497.13
2023-02-18T11:53:29.979Z,100511.13
2023-02-18T11:55:59.798Z,100523.38
2023-02-18T11:58:28.052Z,100539.81
2023-02-18T12:00:59.003Z,100555.31
2023-02-18T12:03:35.326Z,100570.94
2023-02-18T12:06:12.096Z,100582.63
2023-02-18T12:09:05.788Z,100581.38
2023-02-18T12:11:39.225Z,100565.34
2023-02-18T12:14:14.224Z,100562.16
2023-02-18T12:16:59.225Z,100537.38
2023-02-18T12:19:45.899Z,100493.22
2023-02-18T12:22:26.924Z,100414.25
2023-02-18T12:25:02.701Z,100395.75
2023-02-18T12:27:50.416Z,100449.97
2023-02-18T12:30:40.247Z,100502.69
2023-02-18T12:33:29.444Z,100531.97
2023-02-18T12:36:19.488Z,100557.22
2023-02-18T12:39:02.319Z,100573.88
2023-02-18T12:41:35.032Z,100576.97
2023-02-18T12:44:10.738Z,100582.25
2023-02-18T12:47:01.177Z,100580.38
2023-02-18T12:49:39.579Z,100584.66
2023-02-18T12:52:09.041Z,100590.25
2023-02-18T12:55:15.279Z,100591.81
2023-02-18T12:58:00.202Z,100596.88
2023-02-18T13:00:51.951Z,100614.38
2023-02-18T13:03:40.280Z,100612.09
2023-02-18T13:06:31.153Z,100616.84
2023-02-18T13:09:25.597Z,100616.84
2023-02-18T13:12:06.213Z,100612.03
2023-02-18T13:14:50.079Z,100621.50
2023-02-18T13:17:20.041Z,100623.03
2023-02-18T13:19:50.650Z,100628.38
2023-02-18T13:22:20.903Z,100628.41
2023-02-18T13:24:49.600Z,100628.22
2023-02-18T13:27:28.476Z,100628.41
2023-02-18T13:30:26.572Z,100646.91
2023-02-18T13:33:18.047Z,100658.19
2023-02-18T13:35:54.932Z,100657.13
2023-02-18T13:38:54.379Z,100653.69
2023-02-18T13:41:21.741Z,100653.94
2023-02-18T13:43:50.187Z,100648.25
2023-02-18T13:46:19.873Z,100649.78
2023-02-18T13:48:53.125Z,100689.19
2023-02-18T13:51:48.804Z,100689.88
2023-02-18T13:54:28.241Z,100682.47
2023-02-18T13:57:06.944Z,100682.59
2023-02-18T13:59:39.941Z,100676.94
2023-02-18T14:02:25.348Z,100656.78
2023-02-18T14:04:55.737Z,100646.75
2023-02-18T14:07:33.443Z,100645.50
2023-02-18T14:10:05.393Z,100652.88
2023-02-18T14:12:41.397Z,100665.34
2023-02-18T14:15:40.533Z,100667.19
2023-02-18T14:18:13.416Z,100668.63
2023-02-18T14:20:39.987Z,100681.31
2023-02-18T14:23:36.094Z,100704.13
2023-02-18T14:26:13.784Z,100709.53
2023-02-18T14:28:44.883Z,100715.56
2023-02-18T14:31:41.601Z,100717.25
2023-02-18T14:34:23.629Z,100719.84
2023-02-18T14:37:27.937Z,100703.22
2023-02-18T14:40:06.772Z,100701.56
2023-02-18T14:42:39.472Z,100694.19
2023-02-18T14:45:52.313Z,100712.91
2023-02-18T14:49:04.375Z,100734.53
2023-02-18T14:51:34.092Z,100746.66
2023-02-18T14:54:13.813Z,100749.13
2023-02-18T14:56:51.409Z,100747.03
2023-02-18T14:59:19.950Z,100742.19
2023-02-18T15:01:47.861Z,100735.94
2023-02-18T15:04:15.821Z,100749.47
2023-02-18T15:06:42.677Z,100746.78
2023-02-18T15:09:18.216Z,100759.47
2023-02-18T15:11:51.132Z,100771.25
2023-02-18T15:14:21.532Z,100777.78
2023-02-18T15:16:49.596Z,100763.84
2023-02-18T15:19:19.572Z,100778.00
2023-02-18T15:21:49.146Z,100766.13
2023-02-18T15:24:25.774Z,100761.00
2023-02-18T15:26:55.828Z,100762.97
2023-02-18T15:29:25.539Z,100752.66
2023-02-18T15:31:55.331Z,100758.59
2023-02-18T15:34:37.715Z,100767.72
2023-02-18T15:37:07.541Z,100775.38
2023-02-18T15:39:35.312Z,100782.50
2023-02-18T15:42:17.133Z,100788.50
2023-02-18T15:44:55.263Z,100785.44
2023-02-18T15:47:22.998Z,100793.72
2023-02-18T15:49:54.228Z,100801.72
2023-02-18T15:52:30.821Z,100797.13
2023-02-18T15:55:03.705Z,100799.13
2023-02-18T15:57:31.131Z,100798.00
2023-02-18T16:00:05.610Z,100787.03
2023-02-18T16:02:33.375Z,100795.25
2023-02-18T16:05:05.081Z,100800.53
2023-02-18T16:07:48.820Z,100804.66
2023-02-18T16:10:24.906Z,100810.78
2023-02-18T16:13:00.386Z,100807.75
2023-02-18T16:15:30.682Z,100805.84
2023-02-18T16:17:59.175Z,100807.16
2023-02-18T16:20:37.954Z,100800.63
2023-02-18T16:23:14.849Z,100806.56
2023-02-18T16:25:48.741Z,100811.13
2023-02-18T16:28:31.544Z,100812.41
2023-02-18T16:30:58.958Z,100825.19
2023-02-18T16:33:25.757Z,100814.66
2023-02-18T16:35:52.615Z,100806.56
2023-02-18T16:38:24.501Z,100808.19
2023-02-18T16:40:53.470Z,100815.44
2023-02-18T16:43:22.821Z,100804.41
2023-02-18T16:45:57.693Z,100812.06
2023-02-18T16:48:37.348Z,100808.47
2023-02-18T16:51:09.678Z,100820.97
2023-02-18T16:53:36.565Z,100824.13
2023-02-18T16:56:03.513Z,100821.28
2023-02-18T16:58:30.271Z,100812.75
2023-02-18T17:00:57.673Z,100828.25
2023-02-18T17:03:24.363Z,100818.81
2023-02-18T17:05:51.115Z,100817.50
2023-02-18T17:08:27.472Z,100815.19
2023-02-18T17:10:57.447Z,100818.06
2023-02-18T17:13:27.502Z,100818.81
2023-02-18T17:15:55.946Z,100823.47
2023-02-18T17:18:24.016Z,100821.56
2023-02-18T17:20:52.995Z,100819.91
2023-02-18T17:23:23.150Z,100825.94
2023-02-18T17:25:52.024Z,100826.16
2023-02-18T17:28:19.420Z,100831.97
2023-02-18T17:30:49.508Z,100833.88
2023-02-18T17:33:18.622Z,100841.66
2023-02-18T17:35:46.077Z,100848.28
2023-02-18T17:38:14.693Z,100844.88
2023-02-18T17:40:41.530Z,100857.56
2023-02-18T17:43:13.764Z,100853.56
2023-02-18T17:45:45.532Z,100857.66
2023-02-18T17:48:12.224Z,100853.38
2023-02-18T17:50:38.861Z,100853.59
2023-02-18T17:53:05.549Z,100857.13
2023-02-18T17:55:35.487Z,100857.00
2023-02-18T17:58:02.305Z,100845.13
2023-02-18T18:00:39.198Z,100847.97
2023-02-18T18:03:06.253Z,100856.63
2023-02-18T18:05:35.973Z,100854.59
2023-02-18T18:08:05.212Z,100859.81
2023-02-18T18:10:39.058Z,100861.56
2023-02-18T18:13:09.779Z,100865.84
2023-02-18T18:15:39.630Z,100862.06
2023-02-18T18:18:06.818Z,100867.84
2023-02-18T18:20:35.255Z,100866.75
2023-02-18T18:23:04.799Z,100867.41
2023-02-18T18:25:41.405Z,100868.69
2023-02-18T18:28:08.886Z,100872.13
2023-02-18T18:30:40.911Z,100874.81
2023-02-18T18:33:18.251Z,100878.78
2023-02-18T18:35:47.585Z,100875.09
2023-02-18T18:38:14.669Z,100876.47
2023-02-18T18:40:41.650Z,100876.41
2023-02-18T18:43:16.912Z,100884.81
2023-02-18T18:45:43.729Z,100884.53
2023-02-18T18:48:10.380Z,100887.88
2023-02-18T18:50:41.909Z,100891.59
2023-02-18T18:53:29.946Z,100883.44
2023-02-18T18:56:02.759Z,100894.63
2023-02-18T18:58:29.603Z,100894.50
2023-02-18T19:00:59.164Z,100890.94
2023-02-18T19:03:27.938Z,100890.84
2023-02-18T19:05:55.428Z,100895.38
2023-02-18T19:08:22.429Z,100892.09
2023-02-18T19:10:57.047Z,100900.31
2023-02-18T19:13:29.957Z,100895.16
2023-02-18T19:16:26.489Z,100890.50
2023-02-18T19:18:54.213Z,100896.75
2023-02-18T19:21:20.976Z,100895.75
2023-02-18T19:23:47.846Z,100902.88
2023-02-18T19:26:16.610Z,100902.13
2023-02-18T19:28:44.503Z,100899.88
2023-02-18T19:31:11.799Z,100897.28
2023-02-18T19:33:39.651Z,100899.72
2023-02-18T19:36:08.873Z,100903.06
2023-02-18T19:38:35.674Z,100893.56
2023-02-18T19:41:20.801Z,100902.28
2023-02-18T19:43:47.608Z,100892.31
2023-02-18T19:46:17.091Z,100901.56
2023-02-18T19:48:47.148Z,100906.19
2023-02-18T19:51:14.585Z,100905.41
2023-02-18T19:53:41.271Z,100915.31
2023-02-18T19:56:08.125Z,100917.09
2023-02-18T19:58:36.197Z,100912.91
2023-02-18T20:01:03.502Z,100905.25
2023-02-18T20:03:30.204Z,100902.28
2023-02-18T20:05:56.841Z,100896.63
2023-02-18T20:08:23.533Z,100889.34
2023-02-18T20:10:59.594Z,100893.19
2023-02-18T20:13:26.923Z,100890.66
2023-02-18T20:15:53.696Z,100885.63
2023-02-18T20:18:20.412Z,100882.88
2023-02-18T20:20:48.948Z,100887.09
2023-02-18T20:23:15.948Z,100894.41
2023-02-18T20:25:42.670Z,100888.97
2023-02-18T20:28:10.255Z,100889.13
2023-02-18T20:30:36.956Z,100884.81
2023-02-18T20:33:03.972Z,100881.31
2023-02-18T20:35:30.656Z,100889.47
2023-02-18T20:37:57.336Z,100891.50
2023-02-18T20:40:24.370Z,100880.09
2023-02-18T20:42:51.025Z,100880.94
2023-02-18T20:45:17.822Z,100887.69
2023-02-18T20:47:44.604Z,100891.53
2023-02-18T20:50:11.303Z,100889.00
2023-02-18T20:52:38.155Z,100883.63
2023-02-18T20:55:05.022Z,100889.28
2023-02-18T20:57:31.694Z,100881.22
2023-02-18T20:59:58.466Z,100876.88
2023-02-18T21:02:25.629Z,100875.97
2023-02-18T21:04:52.286Z,100885.16
2023-02-18T21:07:18.996Z,100886.03
2023-02-18T21:09:45.649Z,100885.31
2023-02-18T21:12:14.521Z,100876.16
2023-02-18T21:14:41.289Z,100875.34
2023-02-18T21:17:09.534Z,100882.66
2023-02-18T21:19:36.423Z,100879.03
2023-02-18T21:22:03.107Z,100871.13
2023-02-18T21:24:29.863Z,100873.09
2023-02-18T21:26:56.608Z,100869.31
2023-02-18T21:29:23.333Z,100862.38
2023-02-18T21:31:50.113Z,100857.69
2023-02-18T21:34:17.534Z,100846.94
2023-02-18T21:36:44.307Z,100845.81
2023-02-18T21:39:11.714Z,100851.22
2023-02-18T21:41:41.014Z,100854.94
2023-02-18T21:44:09.109Z,100856.75
2023-02-18T21:46:36.878Z,100861.25
2023-02-18T21:49:09.839Z,100847.69
2023-02-18T21:51:56.751Z,100837.94
2023-02-18T21:54:31.102Z,100839.81
2023-02-18T21:56:59.259Z,100830.78
2023-02-18T21:59:28.858Z,100818.06
2023-02-18T22:01:57.401Z,100819.94
2023-02-18T22:04:25.405Z,100823.66
2023-02-18T22:06:53.863Z,100820.81
2023-02-18T22:09:20.583Z,100828.94
2023-02-18T22:11:47.284Z,100827.19
2023-02-18T22:14:15.186Z,100831.56
2023-02-18T22:16:41.980Z,100833.38
2023-02-18T22:19:11.034Z,100836.00
2023-02-18T22:21:37.746Z,100831.63
2023-02-18T22:24:05.396Z,100825.41
2023-02-18T22:26:32.218Z,100816.97
2023-02-18T22:28:59.790Z,100807.72
2023-02-18T22:31:29.123Z,100796.81
2023-02-18T22:33:58.954Z,100800.22
2023-02-18T22:36:27.689Z,100799.44
2023-02-18T22:38:54.692Z,100810.97
2023-02-18T22:41:23.389Z,100808.66
2023-02-18T22:43:58.575Z,100799.66
2023-02-18T22:46:26.505Z,100800.38
2023-02-18T22:48:55.376Z,100795.88
2023-02-18T22:51:27.639Z,100773.34
2023-02-18T22:53:56.372Z,100764.59
2023-02-18T22:56:24.788Z,100757.53
2023-02-18T22:58:53.398Z,100753.91
2023-02-18T23:01:34.831Z,100744.59
2023-02-18T23:04:21.181Z,100750.34
2023-02-18T23:06:48.805Z,100753.97
2023-02-18T23:09:25.432Z,100744.22
2023-02-18T23:11:53.874Z,100739.00
2023-02-18T23:14:21.825Z,100741.63
2023-02-18T23:17:13.262Z,100748.88
2023-02-18T23:19:44.419Z,100742.63
2023-02-18T23:22:12.956Z,100734.63
2023-02-18T23:24:42.549Z,100726.44
2023-02-18T23:27:11.670Z,100715.41
2023-02-18T23:29:39.023Z,100701.84
2023-02-18T23:32:06.586Z,100702.63
2023-02-18T23:34:33.548Z,100699.94
2023-02-18T23:37:00.436Z,100700.66
2023-02-18T23:39:27.301Z,100699.94
2023-02-18T23:41:53.973Z,100697.81
2023-02-18T23:44:23.374Z,100693.47
2023-02-18T23:46:50.440Z,100684.47
2023-02-18T23:49:22.680Z,100672.84
2023-02-18T23:51:50.958Z,100681.84
2023-02-18T23:54:18.252Z,100676.47
2023-02-18T23:56:45.081Z,100683.69
2023-02-18T23:59:12.478Z,100687.22
